Floyds Knobs, Indiana
Current Conditions -  °F | °C
As of 12:56 AM on Wednesday 28 Jan 2015 (Local Time) from KSDF Reporting Station
Clear Clear  
Wind Chill: 18°   Ceiling: Unl
Heat Index: 25°   Visibility: 9mi
Dew Point: 14°   Wind: 6mph
Humidity: 63%   Direction: 70°ENE
Pressure: 30.27"   Gusts: NA
Location:  38.32°N, 85.87°W
Report Text: KSDF 280556Z 07005KT 9SM CLR M04/M10 A3027 RMK AO2 SLP256 T10391100 10000 21039 53007
Loading
Personal Weather Stations






























Interactive Weather Map New forecast layout! Learn more

10-Day Weather Forecast

Advertisements
Track Severe Weather on mobile